Time;durP1;ratioP1;P1;durP2;ratioP2;P2;SDS_P1;SDS_P2;PMS_P1;PMS_P2;Temp;Humidity;BMP_temperature;BMP_pressure;BME280_temperature;BME280_humidity;BME280_pressure;Samples;Min_cycle;Max_cycle;Signal;HPM_P1;HPM_P2
2021/12/16 00:09:22;;;;;;;14.98;11.40;;;6.30;99.90;;;;;;6284129;22;20398;-51
2021/12/16 00:33:45;;;;;;;16.98;11.15;;;6.20;99.90;;;;;;6266168;22;20227;-48
2021/12/16 00:36:12;;;;;;;14.35;11.00;;;6.20;99.90;;;;;;6272407;22;20159;-48
2021/12/16 00:38:42;;;;;;;16.10;11.30;;;6.50;99.90;;;;;;6270711;22;20167;-49
2021/12/16 00:41:08;;;;;;;14.60;11.15;;;6.20;99.90;;;;;;6281363;22;20207;-50
2021/12/16 00:44:14;;;;;;;17.77;11.40;;;6.20;99.90;;;;;;6271029;22;20686;-49
2021/12/16 00:49:53;;;;;;;15.35;10.55;;;6.20;99.90;;;;;;6281275;22;20226;-49
2021/12/16 00:54:50;;;;;;;14.27;11.50;;;6.20;99.90;;;;;;6272951;22;20580;-48
2021/12/16 00:57:16;;;;;;;15.43;11.65;;;6.30;99.90;;;;;;6283559;22;20514;-49
2021/12/16 00:59:47;;;;;;;17.43;11.90;;;6.20;99.90;;;;;;6283676;22;20175;-48
2021/12/16 01:45:33;;;;;;;14.13;10.60;;;6.40;99.90;;;;;;6273889;22;20203;-49
2021/12/16 01:51:00;;;;;;;12.68;10.25;;;6.50;99.90;;;;;;6283789;22;20178;-49
2021/12/16 01:54:13;;;;;;;13.32;10.95;;;6.60;99.90;;;;;;6273060;22;20258;-48
2021/12/16 01:56:42;;;;;;;12.75;9.77;;;6.50;99.90;;;;;;6272682;22;20160;-49
2021/12/16 01:59:16;;;;;;;14.80;11.52;;;6.40;99.90;;;;;;6272355;22;20164;-49
2021/12/16 02:01:41;;;;;;;14.10;11.40;;;6.60;99.90;;;;;;6282055;22;20522;-49
2021/12/16 02:04:16;;;;;;;15.20;11.23;;;6.50;99.90;;;;;;6283832;22;20227;-49
2021/12/16 02:09:26;;;;;;;15.32;11.27;;;6.00;99.90;;;;;;6283494;22;20214;-49
2021/12/16 02:12:00;;;;;;;16.58;11.77;;;6.70;99.90;;;;;;6273263;22;20152;-49
2021/12/16 02:28:20;;;;;;;15.63;11.27;;;6.40;99.90;;;;;;6283763;22;20606;-50
2021/12/16 02:33:50;;;;;;;16.02;11.43;;;6.60;99.90;;;;;;6283985;22;20262;-49
2021/12/16 02:38:51;;;;;;;16.73;11.63;;;6.70;99.90;;;;;;6284055;22;20140;-49
2021/12/16 02:41:17;;;;;;;13.15;10.27;;;6.50;99.90;;;;;;6283008;22;20135;-49
2021/12/16 02:48:45;;;;;;;14.70;11.40;;;6.70;99.90;;;;;;6282044;22;20152;-50
2021/12/16 02:51:14;;;;;;;13.50;11.18;;;6.60;99.90;;;;;;6282488;22;20190;-49
2021/12/16 02:53:47;;;;;;;14.38;11.02;;;6.40;99.90;;;;;;6270282;22;20189;-50
2021/12/16 02:56:13;;;;;;;14.68;10.85;;;6.80;99.90;;;;;;6281640;22;20529;-49
2021/12/16 02:58:42;;;;;;;15.30;11.75;;;6.40;99.90;;;;;;6280135;22;20206;-49
2021/12/16 03:01:13;;;;;;;13.23;10.30;;;6.40;99.90;;;;;;6270909;22;20164;-50
2021/12/16 03:03:40;;;;;;;13.23;10.38;;;6.40;99.90;;;;;;6281310;22;20493;-49
2021/12/16 03:06:08;;;;;;;14.48;11.18;;;7.10;99.90;;;;;;6270796;22;20223;-50
2021/12/16 03:08:34;;;;;;;16.45;11.68;;;6.40;99.90;;;;;;6270132;22;20163;-49
2021/12/16 03:11:16;;;;;;;13.68;10.93;;;6.10;99.90;;;;;;6269221;22;20159;-49
2021/12/16 03:14:01;;;;;;;14.50;11.18;;;6.50;99.90;;;;;;6270586;22;20180;-49
2021/12/16 03:16:45;;;;;;;13.38;11.07;;;6.80;99.90;;;;;;6271948;22;20158;-49
2021/12/16 03:21:56;;;;;;;14.98;11.75;;;6.50;99.90;;;;;;6281445;22;20222;-50
2021/12/16 03:33:14;;;;;;;17.75;12.38;;;6.40;99.90;;;;;;6282216;22;20230;-50
2021/12/16 03:35:27;;;;;;;15.88;12.95;;;6.40;99.90;;;;;;6259413;22;20537;-49
2021/12/16 03:37:56;;;;;;;17.05;11.27;;;6.50;99.90;;;;;;6271723;22;20167;-50
2021/12/16 03:40:22;;;;;;;15.55;11.80;;;6.50;99.90;;;;;;6282065;22;20206;-50
2021/12/16 03:43:06;;;;;;;17.83;12.35;;;6.40;99.90;;;;;;6281816;22;20152;-49
2021/12/16 03:48:45;;;;;;;15.02;10.80;;;6.60;99.90;;;;;;6281301;22;20906;-50
2021/12/16 03:51:39;;;;;;;16.77;12.03;;;6.70;99.90;;;;;;6228624;22;1137691;-49
2021/12/16 03:54:10;;;;;;;16.70;11.43;;;6.50;99.90;;;;;;6264203;22;20282;-49
2021/12/16 03:56:38;;;;;;;16.52;12.43;;;6.50;99.90;;;;;;6271989;22;20662;-49
2021/12/16 03:59:04;;;;;;;15.10;10.88;;;6.90;99.90;;;;;;6272517;22;20152;-50
2021/12/16 04:01:31;;;;;;;15.05;11.45;;;6.70;99.90;;;;;;6283314;22;20179;-50
2021/12/16 04:03:58;;;;;;;16.67;12.20;;;6.60;99.90;;;;;;6272976;22;20537;-49
2021/12/16 04:06:25;;;;;;;18.40;11.68;;;6.50;99.90;;;;;;6271336;22;20548;-49
2021/12/16 04:08:53;;;;;;;16.02;11.35;;;6.40;99.90;;;;;;6283313;22;20222;-49
2021/12/16 04:11:32;;;;;;;16.25;11.90;;;6.50;99.90;;;;;;6283260;22;20155;-49
2021/12/16 04:13:59;;;;;;;17.77;11.57;;;6.50;99.90;;;;;;6272317;22;20228;-49
2021/12/16 04:16:47;;;;;;;16.45;11.68;;;6.80;99.90;;;;;;6283203;22;20155;-50
2021/12/16 04:19:16;;;;;;;17.88;11.70;;;6.80;99.90;;;;;;6280712;22;20223;-49
2021/12/16 04:21:46;;;;;;;18.52;12.52;;;6.60;99.90;;;;;;6271593;22;20157;-49
2021/12/16 04:24:12;;;;;;;17.42;12.38;;;6.80;99.90;;;;;;6282025;22;20252;-49
2021/12/16 04:26:41;;;;;;;14.82;12.10;;;6.50;99.90;;;;;;6281738;22;20154;-49
2021/12/16 04:29:07;;;;;;;16.42;11.50;;;6.40;99.90;;;;;;6271129;22;20261;-49
2021/12/16 04:31:36;;;;;;;19.42;13.15;;;6.50;99.90;;;;;;6283308;22;20614;-49
2021/12/16 04:34:02;;;;;;;20.05;13.80;;;6.60;99.90;;;;;;6282166;22;20176;-50
2021/12/16 04:36:29;;;;;;;17.30;13.02;;;6.60;99.90;;;;;;6270617;22;20158;-49
2021/12/16 04:38:54;;;;;;;18.48;12.48;;;6.70;99.90;;;;;;6271189;22;20165;-50
2021/12/16 04:41:20;;;;;;;18.00;12.87;;;6.90;99.90;;;;;;6281686;22;20152;-49
2021/12/16 04:43:52;;;;;;;18.77;12.23;;;6.30;99.90;;;;;;6271044;22;20392;-49
2021/12/16 04:46:22;;;;;;;19.60;13.30;;;6.30;99.90;;;;;;6282711;22;20380;-50
2021/12/16 04:48:52;;;;;;;17.65;13.18;;;6.40;99.90;;;;;;6281579;22;20157;-50
2021/12/16 04:51:20;;;;;;;19.20;14.27;;;6.60;99.90;;;;;;6282301;22;20638;-49
2021/12/16 04:53:47;;;;;;;22.25;14.75;;;6.40;99.90;;;;;;6281734;22;20196;-49
2021/12/16 04:56:15;;;;;;;21.23;13.80;;;6.50;99.90;;;;;;6271745;22;20156;-49
2021/12/16 04:58:44;;;;;;;20.42;14.25;;;6.50;99.90;;;;;;6281912;22;20161;-49
2021/12/16 05:01:10;;;;;;;20.05;13.60;;;6.60;99.90;;;;;;6281162;22;20591;-49
2021/12/16 05:03:36;;;;;;;20.97;14.50;;;6.70;99.90;;;;;;6271429;22;20624;-49
2021/12/16 05:06:03;;;;;;;21.38;15.77;;;6.60;99.90;;;;;;6281605;22;20909;-50
2021/12/16 05:08:29;;;;;;;18.52;13.80;;;6.50;99.90;;;;;;6282105;22;20151;-50
2021/12/16 05:10:57;;;;;;;19.73;14.60;;;6.70;99.90;;;;;;6271292;22;20166;-50
2021/12/16 05:13:26;;;;;;;22.17;15.32;;;6.40;99.90;;;;;;6282466;22;20172;-49
2021/12/16 05:15:54;;;;;;;23.13;14.45;;;6.30;99.90;;;;;;6282394;22;20179;-49
2021/12/16 05:18:30;;;;;;;23.27;14.93;;;6.30;99.90;;;;;;6271267;22;20235;-50
2021/12/16 05:20:57;;;;;;;21.30;14.30;;;6.00;99.90;;;;;;6270399;22;20186;-50
2021/12/16 05:28:41;;;;;;;19.88;13.73;;;6.20;99.90;;;;;;6283389;22;20189;-50
2021/12/16 05:31:08;;;;;;;21.42;13.18;;;6.50;99.90;;;;;;6272616;22;20645;-50
2021/12/16 05:33:34;;;;;;;19.83;13.20;;;6.40;99.90;;;;;;6282092;22;20251;-50
2021/12/16 05:35:59;;;;;;;27.00;14.60;;;6.50;99.90;;;;;;6282479;22;20191;-51
2021/12/16 05:38:27;;;;;;;18.90;13.20;;;6.40;99.90;;;;;;6283638;22;20202;-51
2021/12/16 05:40:54;;;;;;;21.40;13.95;;;6.40;99.90;;;;;;6273956;22;20191;-51
2021/12/16 05:43:23;;;;;;;20.10;12.80;;;6.20;99.90;;;;;;6274085;22;20176;-51
2021/12/16 05:45:50;;;;;;;18.88;12.93;;;6.30;99.90;;;;;;6284211;22;20246;-50
2021/12/16 05:48:19;;;;;;;21.02;13.55;;;6.40;99.90;;;;;;6273536;22;20160;-51
2021/12/16 05:50:50;;;;;;;19.25;13.80;;;6.70;99.90;;;;;;6273449;22;20641;-50
2021/12/16 05:53:16;;;;;;;20.45;14.15;;;6.50;99.90;;;;;;6273484;22;20188;-50
2021/12/16 05:55:42;;;;;;;20.48;13.38;;;6.40;99.90;;;;;;6284288;22;20220;-50
2021/12/16 05:58:10;;;;;;;19.60;13.70;;;6.40;99.90;;;;;;6273905;22;20171;-51
2021/12/16 06:00:41;;;;;;;21.13;13.30;;;6.50;99.90;;;;;;6283510;22;20908;-51
2021/12/16 06:03:07;;;;;;;21.23;13.40;;;6.50;99.90;;;;;;6273980;22;20184;-51
2021/12/16 06:05:32;;;;;;;20.27;14.30;;;6.80;99.90;;;;;;6274227;22;20619;-51
2021/12/16 06:07:58;;;;;;;18.30;13.00;;;6.40;99.90;;;;;;6284184;22;20411;-51
2021/12/16 06:12:52;;;;;;;21.50;13.38;;;6.60;99.90;;;;;;6283078;22;20152;-50
2021/12/16 06:15:35;;;;;;;17.07;11.07;;;6.80;99.90;;;;;;6273437;22;20572;-50
2021/12/16 06:26:29;;;;;;;18.45;11.88;;;6.40;99.90;;;;;;6282757;22;20140;-51
2021/12/16 06:28:55;;;;;;;19.50;11.68;;;6.80;99.90;;;;;;6273940;22;20158;-51
2021/12/16 06:31:21;;;;;;;19.87;12.00;;;6.60;99.90;;;;;;6283228;22;20148;-51
2021/12/16 06:33:47;;;;;;;16.38;11.98;;;6.70;99.90;;;;;;6283193;22;20618;-51
2021/12/16 06:36:13;;;;;;;18.17;12.27;;;6.70;99.90;;;;;;6283606;22;20149;-51
2021/12/16 06:38:38;;;;;;;17.60;11.77;;;6.60;99.90;;;;;;6272483;22;20357;-51
2021/12/16 06:41:04;;;;;;;18.53;12.47;;;6.50;99.90;;;;;;6273038;22;20273;-51
2021/12/16 06:43:31;;;;;;;16.90;12.30;;;6.60;99.90;;;;;;6273507;22;20187;-51
2021/12/16 06:45:58;;;;;;;18.90;12.13;;;6.70;99.90;;;;;;6273471;22;20153;-51
2021/12/16 06:48:29;;;;;;;16.40;11.65;;;6.70;99.90;;;;;;6282010;22;20476;-51
2021/12/16 06:51:06;;;;;;;16.85;11.35;;;6.80;99.90;;;;;;6272634;22;20603;-51
2021/12/16 06:53:48;;;;;;;16.88;12.15;;;6.60;99.90;;;;;;6283236;22;20184;-51
2021/12/16 06:56:24;;;;;;;18.50;12.57;;;6.60;99.90;;;;;;6271556;22;20579;-52
2021/12/16 06:59:03;;;;;;;18.13;12.07;;;6.80;99.90;;;;;;6272763;22;20178;-51
2021/12/16 07:01:39;;;;;;;19.17;12.02;;;6.60;99.90;;;;;;6282608;22;20415;-52
2021/12/16 07:04:10;;;;;;;19.65;11.40;;;7.10;99.90;;;;;;6283506;22;20532;-52
2021/12/16 07:06:39;;;;;;;18.30;11.90;;;6.40;99.90;;;;;;6271298;22;20156;-52
2021/12/16 07:09:14;;;;;;;16.73;11.80;;;6.60;99.90;;;;;;6272402;22;20205;-52
2021/12/16 07:11:44;;;;;;;16.83;10.60;;;6.90;99.90;;;;;;6272864;22;20153;-51
2021/12/16 07:14:14;;;;;;;20.15;13.15;;;6.70;99.90;;;;;;6272846;22;20516;-52
2021/12/16 07:16:45;;;;;;;16.70;11.25;;;6.70;99.90;;;;;;6283228;22;20470;-52
2021/12/16 07:19:10;;;;;;;18.10;11.55;;;6.80;99.90;;;;;;6270452;22;20478;-50
2021/12/16 07:21:41;;;;;;;16.97;10.60;;;6.60;99.90;;;;;;6281121;22;20154;-51
2021/12/16 07:24:10;;;;;;;15.93;10.73;;;6.70;99.90;;;;;;6272758;22;20460;-48
2021/12/16 07:26:36;;;;;;;17.63;11.50;;;6.60;99.90;;;;;;6270697;22;20160;-49
2021/12/16 07:29:05;;;;;;;19.00;10.70;;;7.10;99.90;;;;;;6273233;22;20481;-50
2021/12/16 07:31:33;;;;;;;20.35;12.68;;;7.10;99.90;;;;;;6271428;22;20152;-50
2021/12/16 07:33:59;;;;;;;18.10;11.95;;;6.80;99.90;;;;;;6284124;22;20255;-51
2021/12/16 07:36:25;;;;;;;17.50;10.75;;;6.70;99.90;;;;;;6284952;22;20194;-49
2021/12/16 07:38:52;;;;;;;18.95;11.70;;;6.80;99.90;;;;;;6274024;22;20466;-49
2021/12/16 07:41:21;;;;;;;19.98;10.88;;;6.90;99.90;;;;;;6284468;22;20176;-53
2021/12/16 07:46:19;;;;;;;19.33;12.02;;;6.70;99.90;;;;;;6284799;22;20220;-53
2021/12/16 07:48:45;;;;;;;36.23;15.47;;;6.40;99.90;;;;;;6284837;22;20506;-53
2021/12/16 07:51:12;;;;;;;20.52;11.60;;;6.90;99.90;;;;;;6273666;22;20765;-52
2021/12/16 07:53:39;;;;;;;27.60;13.85;;;6.80;99.90;;;;;;6283591;22;20662;-51
2021/12/16 07:56:07;;;;;;;18.42;14.15;;;7.00;99.90;;;;;;6284020;22;20156;-51
2021/12/16 07:58:33;;;;;;;20.58;12.93;;;7.20;99.90;;;;;;6274279;22;20227;-52
2021/12/16 08:01:00;;;;;;;18.85;12.90;;;7.20;99.90;;;;;;6273860;22;20666;-50
2021/12/16 08:03:34;;;;;;;16.10;10.80;;;7.10;99.90;;;;;;6272875;22;20259;-52
2021/12/16 08:06:02;;;;;;;16.65;11.35;;;7.00;99.90;;;;;;6283024;22;20169;-49
2021/12/16 08:08:27;;;;;;;14.75;10.50;;;7.30;99.90;;;;;;6270281;22;20152;-51
2021/12/16 08:10:55;;;;;;;16.30;10.97;;;7.30;99.90;;;;;;6282630;22;20152;-51
2021/12/16 08:13:20;;;;;;;18.83;12.63;;;7.30;99.90;;;;;;6271884;22;20615;-51
2021/12/16 08:15:47;;;;;;;15.10;10.20;;;7.60;99.90;;;;;;6270607;22;20174;-51
2021/12/16 08:18:13;;;;;;;18.88;11.70;;;7.30;99.90;;;;;;6282104;22;20152;-51
2021/12/16 08:20:40;;;;;;;19.73;12.80;;;6.90;99.90;;;;;;6270875;22;20270;-50
2021/12/16 08:23:06;;;;;;;17.63;11.73;;;7.00;99.90;;;;;;6272122;22;20191;-51
2021/12/16 08:25:33;;;;;;;18.30;11.00;;;7.20;99.90;;;;;;6281894;22;20150;-51
2021/12/16 08:28:03;;;;;;;16.02;11.05;;;7.10;99.90;;;;;;6271601;22;20156;-51
2021/12/16 08:30:34;;;;;;;14.48;10.32;;;7.40;99.90;;;;;;6271849;22;20167;-51
2021/12/16 08:33:04;;;;;;;15.25;11.30;;;7.50;99.90;;;;;;6281754;22;20178;-50
2021/12/16 08:35:30;;;;;;;15.85;10.05;;;7.30;99.90;;;;;;6282406;22;20147;-50
2021/12/16 08:37:56;;;;;;;15.70;11.02;;;7.30;99.90;;;;;;6271491;22;20169;-50
2021/12/16 08:40:22;;;;;;;16.37;10.40;;;7.30;99.90;;;;;;6271531;22;20710;-51
2021/12/16 08:42:50;;;;;;;16.55;11.98;;;7.60;99.90;;;;;;6282043;22;20356;-51
2021/12/16 08:45:20;;;;;;;18.50;10.93;;;7.40;99.90;;;;;;6281933;22;20198;-50
2021/12/16 08:47:47;;;;;;;16.85;10.55;;;7.60;99.90;;;;;;6281897;22;20205;-50
2021/12/16 08:50:16;;;;;;;17.08;10.90;;;6.90;99.90;;;;;;6281612;22;20227;-51
2021/12/16 08:52:42;;;;;;;17.15;11.38;;;7.70;99.90;;;;;;6270639;22;20156;-51
2021/12/16 08:55:10;;;;;;;21.88;10.80;;;7.20;99.90;;;;;;6271500;22;20163;-51
2021/12/16 08:57:36;;;;;;;14.55;11.15;;;7.20;99.90;;;;;;6280671;22;20160;-51
2021/12/16 09:00:07;;;;;;;14.90;10.43;;;7.50;99.90;;;;;;6270815;22;20180;-49
2021/12/16 09:02:33;;;;;;;17.52;12.07;;;7.40;99.90;;;;;;6281095;22;20474;-50
2021/12/16 09:04:58;;;;;;;17.60;11.70;;;7.40;99.90;;;;;;6270084;22;20172;-48
2021/12/16 09:07:24;;;;;;;16.10;10.37;;;7.40;99.90;;;;;;6269739;22;20669;-49
2021/12/16 09:09:50;;;;;;;15.47;10.63;;;7.00;99.90;;;;;;6271595;22;20531;-48
2021/12/16 09:15:04;;;;;;;17.95;11.40;;;7.50;99.90;;;;;;6280486;22;20152;-50
2021/12/16 09:17:30;;;;;;;13.70;10.45;;;7.80;99.90;;;;;;6273154;22;20152;-50
2021/12/16 09:19:56;;;;;;;17.03;10.13;;;7.70;99.90;;;;;;6283488;22;20184;-50
2021/12/16 09:22:24;;;;;;;17.42;11.07;;;7.30;99.90;;;;;;6283578;22;20227;-50
2021/12/16 09:24:51;;;;;;;14.80;10.27;;;7.40;99.90;;;;;;6283084;22;20495;-52
2021/12/16 09:27:18;;;;;;;14.52;9.65;;;7.00;99.90;;;;;;6272890;22;20152;-51
2021/12/16 09:29:45;;;;;;;16.88;11.35;;;7.50;99.90;;;;;;6283337;22;20155;-52
2021/12/16 09:32:11;;;;;;;15.13;10.82;;;8.20;99.90;;;;;;6273233;22;20476;-51
2021/12/16 09:34:38;;;;;;;13.97;11.00;;;8.00;99.90;;;;;;6282095;22;20259;-51
2021/12/16 09:37:05;;;;;;;16.38;10.77;;;7.90;99.90;;;;;;6272172;22;20358;-51
2021/12/16 09:39:31;;;;;;;18.27;11.27;;;7.90;99.90;;;;;;6283841;22;20520;-52
2021/12/16 09:41:58;;;;;;;15.13;11.00;;;8.00;99.90;;;;;;6273025;22;20180;-50
2021/12/16 09:44:25;;;;;;;14.60;10.45;;;8.10;99.90;;;;;;6282695;22;20171;-50
2021/12/16 09:46:53;;;;;;;12.95;9.07;;;8.30;99.90;;;;;;6272427;22;20498;-49
2021/12/16 09:49:20;;;;;;;17.70;11.82;;;8.30;99.90;;;;;;6283624;22;20515;-49
2021/12/16 09:51:48;;;;;;;19.08;10.45;;;8.40;99.90;;;;;;6272974;22;20518;-49
2021/12/16 09:54:19;;;;;;;13.05;9.38;;;8.30;99.90;;;;;;6274362;22;20180;-49
2021/12/16 09:56:47;;;;;;;12.32;9.35;;;7.90;99.90;;;;;;6272572;22;20585;-51
2021/12/16 09:59:15;;;;;;;13.82;10.25;;;7.90;99.90;;;;;;6272792;22;20157;-49
2021/12/16 10:01:44;;;;;;;14.70;10.18;;;7.80;99.90;;;;;;6274867;22;20159;-50
2021/12/16 10:04:13;;;;;;;13.20;8.63;;;8.30;99.90;;;;;;6285571;22;20172;-51
2021/12/16 10:06:41;;;;;;;13.70;9.85;;;8.10;99.90;;;;;;6284597;22;20175;-52
2021/12/16 10:09:09;;;;;;;16.17;11.88;;;8.30;99.90;;;;;;6273838;22;20156;-51
2021/12/16 10:11:39;;;;;;;14.48;10.70;;;8.50;99.90;;;;;;6285566;22;20152;-51
2021/12/16 10:19:22;;;;;;;16.30;11.10;;;8.60;99.90;;;;;;6286056;22;20180;-50
2021/12/16 10:21:47;;;;;;;15.05;11.27;;;8.50;99.90;;;;;;6275162;22;20153;-49
2021/12/16 10:24:31;;;;;;;48.17;26.50;;;8.20;99.90;;;;;;6275056;22;20200;-48
2021/12/16 10:27:08;;;;;;;27.38;17.38;;;8.10;99.90;;;;;;6284840;22;20584;-52
2021/12/16 10:29:56;;;;;;;16.50;10.70;;;8.60;99.90;;;;;;6286379;22;20148;-51
2021/12/16 10:32:35;;;;;;;14.02;10.32;;;8.50;99.90;;;;;;6285827;22;20152;-49
2021/12/16 10:35:27;;;;;;;15.63;9.80;;;8.30;99.90;;;;;;6285563;22;20175;-49
2021/12/16 10:37:57;;;;;;;12.18;9.55;;;9.10;99.90;;;;;;6285669;22;20133;-49
2021/12/16 10:40:43;;;;;;;11.70;9.70;;;8.50;99.90;;;;;;6273887;22;20184;-51
2021/12/16 10:43:32;;;;;;;22.05;10.95;;;8.90;99.90;;;;;;6283323;22;20174;-49
2021/12/16 10:46:14;;;;;;;17.67;11.95;;;9.10;99.90;;;;;;6280081;22;20219;-50
2021/12/16 10:48:52;;;;;;;18.52;10.63;;;8.60;99.90;;;;;;6281839;22;20642;-50
2021/12/16 10:51:21;;;;;;;12.65;9.88;;;8.40;99.90;;;;;;6273036;22;20180;-50
2021/12/16 10:53:52;;;;;;;17.92;12.35;;;8.80;99.90;;;;;;6272928;22;20242;-50
2021/12/16 10:56:24;;;;;;;19.27;11.15;;;8.50;99.90;;;;;;6282998;22;20227;-51
2021/12/16 10:59:00;;;;;;;17.25;11.25;;;8.40;99.90;;;;;;6282321;22;20623;-51
2021/12/16 11:01:35;;;;;;;17.23;11.35;;;8.50;99.90;;;;;;6281712;22;20168;-51
2021/12/16 11:04:08;;;;;;;16.02;10.63;;;8.60;99.90;;;;;;6272017;22;20213;-51
2021/12/16 11:06:43;;;;;;;18.60;11.35;;;8.50;99.90;;;;;;6282633;22;20500;-51
2021/12/16 11:09:22;;;;;;;15.70;10.90;;;8.70;99.90;;;;;;6282329;22;20132;-51
2021/12/16 11:11:48;;;;;;;15.00;11.20;;;8.90;99.90;;;;;;6283259;22;20224;-50
2021/12/16 11:14:22;;;;;;;16.05;10.85;;;8.60;99.90;;;;;;6282804;22;20702;-51
2021/12/16 11:17:00;;;;;;;15.95;11.27;;;9.00;99.90;;;;;;6283545;22;20148;-51
2021/12/16 11:19:49;;;;;;;15.70;10.65;;;9.10;99.90;;;;;;6282637;22;20190;-50
2021/12/16 11:22:19;;;;;;;15.63;10.40;;;9.20;99.90;;;;;;6283670;22;20568;-50
2021/12/16 11:24:46;;;;;;;15.45;11.70;;;9.30;99.90;;;;;;6283790;22;20170;-51
2021/12/16 11:27:27;;;;;;;16.83;10.90;;;9.10;99.90;;;;;;6282510;22;20190;-51
2021/12/16 11:29:54;;;;;;;17.35;11.43;;;8.90;99.90;;;;;;6280297;22;20223;-51
2021/12/16 11:32:41;;;;;;;14.30;11.20;;;9.20;99.90;;;;;;6283059;22;20152;-51
2021/12/16 11:35:25;;;;;;;17.17;11.32;;;9.10;99.90;;;;;;6282986;22;20167;-51
2021/12/16 11:37:51;;;;;;;17.80;11.75;;;9.20;99.90;;;;;;6282012;22;20247;-50
2021/12/16 11:40:19;;;;;;;14.23;10.23;;;9.10;99.90;;;;;;6272733;22;20636;-51
2021/12/16 11:43:01;;;;;;;16.20;12.10;;;9.00;99.90;;;;;;6282010;22;20375;-50
2021/12/16 11:45:37;;;;;;;17.08;10.27;;;8.90;99.90;;;;;;6282372;22;20156;-50
2021/12/16 11:48:05;;;;;;;22.35;11.77;;;9.10;99.90;;;;;;6282450;22;20206;-51
2021/12/16 11:50:38;;;;;;;15.55;11.32;;;9.10;99.90;;;;;;6272904;22;20195;-50
2021/12/16 11:53:04;;;;;;;14.95;10.68;;;9.20;99.90;;;;;;6270130;22;20245;-51
2021/12/16 11:55:36;;;;;;;17.25;10.77;;;9.10;99.90;;;;;;6280921;22;20183;-50
2021/12/16 11:58:03;;;;;;;17.35;11.82;;;9.10;99.90;;;;;;6271973;22;20239;-51
2021/12/16 12:00:37;;;;;;;15.35;11.13;;;8.90;99.90;;;;;;6272118;22;20188;-51
2021/12/16 12:03:09;;;;;;;16.20;12.10;;;8.80;99.90;;;;;;6270971;22;20168;-51
2021/12/16 12:05:47;;;;;;;16.05;11.63;;;9.00;99.90;;;;;;6271463;22;20208;-51
2021/12/16 12:08:24;;;;;;;21.52;12.57;;;8.90;99.90;;;;;;6282636;22;20148;-50
2021/12/16 12:11:18;;;;;;;14.90;12.13;;;9.20;99.90;;;;;;6282392;22;20190;-51
2021/12/16 12:13:47;;;;;;;19.55;11.57;;;9.00;99.90;;;;;;6282729;22;20199;-51
2021/12/16 12:16:19;;;;;;;15.18;11.23;;;9.20;99.90;;;;;;6271280;22;20160;-50
2021/12/16 12:18:56;;;;;;;17.55;11.40;;;9.40;99.90;;;;;;6271117;22;20160;-51
2021/12/16 12:21:43;;;;;;;15.00;11.30;;;9.50;99.90;;;;;;6271250;22;20232;-51
2021/12/16 12:24:20;;;;;;;14.60;10.88;;;9.50;99.90;;;;;;6282631;22;20225;-52
2021/12/16 12:26:58;;;;;;;15.70;11.73;;;9.60;99.90;;;;;;6271645;22;20163;-49
2021/12/16 12:29:30;;;;;;;16.58;11.65;;;9.40;99.90;;;;;;6282084;22;20817;-48
2021/12/16 12:32:00;;;;;;;17.83;11.02;;;9.30;99.90;;;;;;6283993;22;20147;-50
2021/12/16 12:34:26;;;;;;;15.75;11.45;;;9.40;99.90;;;;;;6283667;22;20203;-50
2021/12/16 12:36:55;;;;;;;17.20;10.70;;;9.30;99.90;;;;;;6283066;22;20148;-50
2021/12/16 12:39:27;;;;;;;16.17;10.73;;;9.60;99.90;;;;;;6283589;22;20627;-50
2021/12/16 12:41:53;;;;;;;16.58;11.73;;;9.20;99.90;;;;;;6272870;22;20604;-48
2021/12/16 12:44:20;;;;;;;16.10;10.88;;;8.90;99.90;;;;;;6283726;22;20165;-50
2021/12/16 12:46:46;;;;;;;16.98;11.82;;;8.80;99.90;;;;;;6274093;22;20156;-50
2021/12/16 12:49:15;;;;;;;18.35;11.70;;;9.20;99.90;;;;;;6275394;22;20157;-49
2021/12/16 12:51:49;;;;;;;15.75;10.65;;;9.10;99.90;;;;;;6275275;22;20172;-49
2021/12/16 12:54:25;;;;;;;15.60;11.40;;;9.40;99.90;;;;;;6275761;22;20181;-50
2021/12/16 12:56:54;;;;;;;16.98;11.52;;;9.20;99.90;;;;;;6275086;22;20180;-50
2021/12/16 12:59:20;;;;;;;15.60;11.73;;;9.30;99.90;;;;;;6286057;22;20144;-51
2021/12/16 13:01:55;;;;;;;17.55;12.15;;;9.50;99.90;;;;;;6285265;22;20615;-51
2021/12/16 13:04:27;;;;;;;16.63;11.05;;;9.10;99.90;;;;;;6287693;22;20619;-50
2021/12/16 13:07:08;;;;;;;18.20;12.50;;;9.30;99.90;;;;;;6273966;22;20160;-50
2021/12/16 13:09:53;;;;;;;13.27;10.05;;;9.50;99.90;;;;;;6275646;22;20217;-51
2021/12/16 13:12:34;;;;;;;13.65;9.52;;;9.60;99.90;;;;;;6285019;22;20250;-51
2021/12/16 13:15:06;;;;;;;14.00;10.55;;;9.80;99.90;;;;;;6274900;22;20251;-51
2021/12/16 13:23:22;;;;;;;14.68;10.25;;;10.10;99.90;;;;;;6274347;22;20246;-51
2021/12/16 13:23:36;;;;;;;13.95;11.00;;;9.40;99.90;;;;;;6285271;22;20225;-50
2021/12/16 13:29:10;;;;;;;14.18;10.63;;;9.30;99.90;;;;;;6285597;22;20495;-50
2021/12/16 13:32:05;;;;;;;17.20;10.30;;;9.70;99.90;;;;;;6285797;22;20140;-51
2021/12/16 13:34:51;;;;;;;14.60;11.27;;;10.00;99.90;;;;;;6275363;22;20208;-51
2021/12/16 13:37:39;;;;;;;17.33;11.15;;;9.90;99.90;;;;;;6275243;22;20144;-50
2021/12/16 13:40:14;;;;;;;18.27;11.50;;;9.40;99.90;;;;;;6275229;22;20181;-49
2021/12/16 13:43:03;;;;;;;16.70;10.75;;;9.60;99.90;;;;;;6285384;22;20132;-50
2021/12/16 13:45:37;;;;;;;16.65;12.55;;;9.50;99.90;;;;;;6275401;22;20607;-50
2021/12/16 13:48:54;;;;;;;16.00;12.65;;;9.60;99.90;;;;;;6274375;22;20152;-51
2021/12/16 14:08:06;;;;;;;14.15;10.75;;;9.30;99.90;;;;;;6285179;22;20165;-51
2021/12/16 14:10:56;;;;;;;16.05;11.20;;;9.60;99.90;;;;;;6284648;22;20525;-50
2021/12/16 14:31:09;;;;;;;17.50;11.75;;;9.50;99.90;;;;;;6284528;22;20141;-49
2021/12/16 14:46:14;;;;;;;14.35;11.07;;;9.30;99.90;;;;;;6284165;22;20534;-52
2021/12/16 14:48:40;;;;;;;14.43;10.57;;;9.10;99.90;;;;;;6284584;22;20180;-51
2021/12/16 14:51:11;;;;;;;17.00;10.63;;;9.20;99.90;;;;;;6273966;22;20297;-50
2021/12/16 14:53:49;;;;;;;14.80;10.95;;;9.10;99.90;;;;;;6273732;22;20178;-50
2021/12/16 14:56:18;;;;;;;20.63;10.75;;;9.20;99.90;;;;;;6284672;22;20164;-50
2021/12/16 14:58:49;;;;;;;16.30;11.32;;;9.30;99.90;;;;;;6274283;22;20167;-51
2021/12/16 15:01:22;;;;;;;14.02;11.23;;;9.20;99.90;;;;;;6274369;22;20165;-52
2021/12/16 15:03:51;;;;;;;15.82;10.13;;;9.10;99.90;;;;;;6284442;22;20160;-51
2021/12/16 15:06:24;;;;;;;13.20;10.75;;;9.50;99.90;;;;;;6284627;22;20149;-50
2021/12/16 15:11:31;;;;;;;14.73;12.07;;;9.30;99.90;;;;;;6284226;22;20157;-49
2021/12/16 15:14:02;;;;;;;15.18;10.82;;;9.30;99.90;;;;;;6273172;22;20180;-50
2021/12/16 15:39:14;;;;;;;12.80;10.32;;;8.40;99.90;;;;;;6283154;22;20136;-52
2021/12/16 15:44:21;;;;;;;14.65;10.20;;;8.30;99.90;;;;;;6282992;22;20172;-52
2021/12/16 15:46:49;;;;;;;15.75;10.45;;;8.30;99.90;;;;;;6281571;22;20152;-51
2021/12/16 15:49:16;;;;;;;13.95;10.77;;;7.90;99.90;;;;;;6270384;22;20160;-51
2021/12/16 15:51:41;;;;;;;18.35;11.60;;;8.10;99.90;;;;;;6270157;22;20183;-51
2021/12/16 15:54:10;;;;;;;15.33;11.40;;;8.00;99.90;;;;;;6283529;22;20172;-51
2021/12/16 15:56:39;;;;;;;15.88;11.38;;;8.10;99.90;;;;;;6282044;22;20698;-51
2021/12/16 15:59:09;;;;;;;15.32;11.15;;;8.00;99.90;;;;;;6282033;22;20145;-51
2021/12/16 16:01:49;;;;;;;13.88;10.23;;;7.90;99.90;;;;;;6281367;22;20172;-51
2021/12/16 16:04:19;;;;;;;14.30;10.75;;;7.40;99.90;;;;;;6281049;22;20644;-51
2021/12/16 16:06:48;;;;;;;14.02;10.50;;;7.90;99.90;;;;;;6280974;22;20211;-50
2021/12/16 16:09:15;;;;;;;14.10;10.68;;;7.90;99.90;;;;;;6270211;22;20156;-52
2021/12/16 16:11:46;;;;;;;16.17;10.80;;;7.70;99.90;;;;;;6281329;22;20415;-53
2021/12/16 16:14:14;;;;;;;15.07;11.60;;;7.90;99.90;;;;;;6270399;22;20266;-52
2021/12/16 16:16:47;;;;;;;14.25;10.25;;;7.90;99.90;;;;;;6269185;22;20184;-51
2021/12/16 16:19:18;;;;;;;14.80;9.77;;;7.80;99.90;;;;;;6281323;22;20151;-52
2021/12/16 16:21:50;;;;;;;16.35;10.70;;;7.30;99.90;;;;;;6280517;22;20232;-52
2021/12/16 16:24:26;;;;;;;13.60;10.38;;;7.80;99.90;;;;;;6281505;22;20177;-51
2021/12/16 16:26:54;;;;;;;14.63;10.93;;;7.60;99.90;;;;;;6282046;22;20139;-54
2021/12/16 16:29:23;;;;;;;14.98;11.52;;;7.70;99.90;;;;;;6280634;22;20152;-53
2021/12/16 16:31:50;;;;;;;17.13;11.98;;;7.10;99.90;;;;;;6270164;22;20206;-54
2021/12/16 16:34:28;;;;;;;17.00;12.52;;;7.20;99.90;;;;;;6282101;22;20259;-53
2021/12/16 16:36:58;;;;;;;15.10;11.70;;;7.30;99.90;;;;;;6270456;22;20218;-50
2021/12/16 16:39:29;;;;;;;19.75;12.50;;;7.40;99.90;;;;;;6270616;22;20270;-50
2021/12/16 16:41:58;;;;;;;20.40;13.07;;;7.20;99.90;;;;;;6271303;22;20501;-51
2021/12/16 16:44:25;;;;;;;18.02;13.60;;;6.80;99.90;;;;;;6281843;22;20171;-51
2021/12/16 16:47:02;;;;;;;24.27;14.60;;;7.00;99.90;;;;;;6280993;22;20155;-51
2021/12/16 16:49:48;;;;;;;18.08;12.90;;;7.00;99.90;;;;;;6281273;22;20216;-49